sensor_id;sensor_type;location;lat;lon;timestamp;temperature;humidity
12901;DHT22;6518;50.930;5.344;2022-12-29T00:00:13;11.30;99.90
12901;DHT22;6518;50.930;5.344;2022-12-29T00:02:40;11.20;99.90
12901;DHT22;6518;50.930;5.344;2022-12-29T00:05:07;11.20;99.90
12901;DHT22;6518;50.930;5.344;2022-12-29T00:07:34;11.20;99.90
12901;DHT22;6518;50.930;5.344;2022-12-29T00:10:01;11.30;99.90
12901;DHT22;6518;50.930;5.344;2022-12-29T00:12:28;11.30;99.90
12901;DHT22;6518;50.930;5.344;2022-12-29T00:15:16;11.20;99.90
12901;DHT22;6518;50.930;5.344;2022-12-29T00:18:00;11.30;99.90
12901;DHT22;6518;50.930;5.344;2022-12-29T00:20:27;11.30;99.90
12901;DHT22;6518;50.930;5.344;2022-12-29T00:23:11;11.30;99.90
12901;DHT22;6518;50.930;5.344;2022-12-29T00:25:56;11.40;99.90
12901;DHT22;6518;50.930;5.344;2022-12-29T00:28:39;11.40;99.90
12901;DHT22;6518;50.930;5.344;2022-12-29T00:31:25;11.40;99.90
12901;DHT22;6518;50.930;5.344;2022-12-29T00:34:11;11.40;99.90
12901;DHT22;6518;50.930;5.344;2022-12-29T00:36:55;11.40;99.90
12901;DHT22;6518;50.930;5.344;2022-12-29T00:39:23;11.50;99.90
12901;DHT22;6518;50.930;5.344;2022-12-29T00:42:08;11.40;99.90
12901;DHT22;6518;50.930;5.344;2022-12-29T00:44:58;11.50;99.90
12901;DHT22;6518;50.930;5.344;2022-12-29T00:47:26;11.50;99.90
12901;DHT22;6518;50.930;5.344;2022-12-29T00:49:53;11.50;99.90
12901;DHT22;6518;50.930;5.344;2022-12-29T00:52:19;11.60;99.90
12901;DHT22;6518;50.930;5.344;2022-12-29T00:54:45;11.60;99.90
12901;DHT22;6518;50.930;5.344;2022-12-29T00:57:12;11.60;99.90
12901;DHT22;6518;50.930;5.344;2022-12-29T00:59:41;11.60;99.90
12901;DHT22;6518;50.930;5.344;2022-12-29T01:02:09;11.60;99.90
12901;DHT22;6518;50.930;5.344;2022-12-29T01:04:37;11.60;99.90
12901;DHT22;6518;50.930;5.344;2022-12-29T01:07:04;11.60;99.90
12901;DHT22;6518;50.930;5.344;2022-12-29T01:09:31;11.60;99.90
12901;DHT22;6518;50.930;5.344;2022-12-29T01:12:15;11.60;99.90
12901;DHT22;6518;50.930;5.344;2022-12-29T01:14:42;11.60;99.90
12901;DHT22;6518;50.930;5.344;2022-12-29T01:17:09;11.60;99.90
12901;DHT22;6518;50.930;5.344;2022-12-29T01:19:37;11.60;99.90
12901;DHT22;6518;50.930;5.344;2022-12-29T01:22:04;11.60;99.90
12901;DHT22;6518;50.930;5.344;2022-12-29T01:24:31;11.60;99.90
12901;DHT22;6518;50.930;5.344;2022-12-29T01:26:57;11.60;99.90
12901;DHT22;6518;50.930;5.344;2022-12-29T01:29:24;11.60;99.90
12901;DHT22;6518;50.930;5.344;2022-12-29T01:31:51;11.60;99.90
12901;DHT22;6518;50.930;5.344;2022-12-29T01:34:18;11.60;99.90
12901;DHT22;6518;50.930;5.344;2022-12-29T01:36:46;11.60;99.90
12901;DHT22;6518;50.930;5.344;2022-12-29T01:39:13;11.60;99.90
12901;DHT22;6518;50.930;5.344;2022-12-29T01:41:39;11.60;99.90
12901;DHT22;6518;50.930;5.344;2022-12-29T01:47:10;11.60;99.90
12901;DHT22;6518;50.930;5.344;2022-12-29T01:49:38;11.70;99.90
12901;DHT22;6518;50.930;5.344;2022-12-29T01:52:07;11.70;99.90
12901;DHT22;6518;50.930;5.344;2022-12-29T01:54:37;11.70;99.90
12901;DHT22;6518;50.930;5.344;2022-12-29T01:57:10;12.10;99.90
12901;DHT22;6518;50.930;5.344;2022-12-29T01:59:41;11.70;99.90
12901;DHT22;6518;50.930;5.344;2022-12-29T02:02:10;11.70;99.90
12901;DHT22;6518;50.930;5.344;2022-12-29T02:04:40;11.70;99.90
12901;DHT22;6518;50.930;5.344;2022-12-29T02:07:14;11.70;99.90
12901;DHT22;6518;50.930;5.344;2022-12-29T02:09:43;11.70;99.90
12901;DHT22;6518;50.930;5.344;2022-12-29T02:12:13;11.70;99.90
12901;DHT22;6518;50.930;5.344;2022-12-29T02:14:40;11.70;99.90
12901;DHT22;6518;50.930;5.344;2022-12-29T02:17:15;11.70;99.90
12901;DHT22;6518;50.930;5.344;2022-12-29T02:22:56;11.70;99.90
12901;DHT22;6518;50.930;5.344;2022-12-29T02:28:31;11.70;99.90
12901;DHT22;6518;50.930;5.344;2022-12-29T02:31:12;11.70;99.90
12901;DHT22;6518;50.930;5.344;2022-12-29T02:33:48;11.70;99.90
12901;DHT22;6518;50.930;5.344;2022-12-29T02:36:23;11.70;99.90
12901;DHT22;6518;50.930;5.344;2022-12-29T02:39:00;11.70;99.90
12901;DHT22;6518;50.930;5.344;2022-12-29T02:41:32;11.70;99.90
12901;DHT22;6518;50.930;5.344;2022-12-29T02:44:04;11.60;99.90
12901;DHT22;6518;50.930;5.344;2022-12-29T02:46:43;11.60;99.90
12901;DHT22;6518;50.930;5.344;2022-12-29T02:49:15;11.60;99.90
12901;DHT22;6518;50.930;5.344;2022-12-29T02:51:50;11.60;99.90
12901;DHT22;6518;50.930;5.344;2022-12-29T02:54:18;11.60;99.90
12901;DHT22;6518;50.930;5.344;2022-12-29T02:57:04;11.60;99.90
12901;DHT22;6518;50.930;5.344;2022-12-29T02:59:31;11.60;99.90
12901;DHT22;6518;50.930;5.344;2022-12-29T03:02:21;11.60;99.90
12901;DHT22;6518;50.930;5.344;2022-12-29T03:05:10;11.60;99.90
12901;DHT22;6518;50.930;5.344;2022-12-29T03:07:52;11.70;99.90
12901;DHT22;6518;50.930;5.344;2022-12-29T03:10:30;11.60;99.90
12901;DHT22;6518;50.930;5.344;2022-12-29T03:13:04;11.70;99.90
12901;DHT22;6518;50.930;5.344;2022-12-29T03:15:55;11.70;99.90
12901;DHT22;6518;50.930;5.344;2022-12-29T03:18:37;11.70;99.90
12901;DHT22;6518;50.930;5.344;2022-12-29T03:21:09;11.70;99.90
12901;DHT22;6518;50.930;5.344;2022-12-29T03:23:37;11.70;99.90
12901;DHT22;6518;50.930;5.344;2022-12-29T03:26:10;11.70;99.90
12901;DHT22;6518;50.930;5.344;2022-12-29T03:28:40;11.70;99.90
12901;DHT22;6518;50.930;5.344;2022-12-29T03:31:10;11.70;99.90
12901;DHT22;6518;50.930;5.344;2022-12-29T03:33:39;11.70;99.90
12901;DHT22;6518;50.930;5.344;2022-12-29T03:36:11;11.70;99.90
12901;DHT22;6518;50.930;5.344;2022-12-29T03:38:43;11.70;99.90
12901;DHT22;6518;50.930;5.344;2022-12-29T03:41:14;11.70;99.90
12901;DHT22;6518;50.930;5.344;2022-12-29T03:43:43;11.70;99.90
12901;DHT22;6518;50.930;5.344;2022-12-29T03:46:09;11.70;99.90
12901;DHT22;6518;50.930;5.344;2022-12-29T03:48:36;11.70;99.90
12901;DHT22;6518;50.930;5.344;2022-12-29T03:51:04;11.70;99.90
12901;DHT22;6518;50.930;5.344;2022-12-29T03:53:31;11.70;99.90
12901;DHT22;6518;50.930;5.344;2022-12-29T03:55:58;11.80;99.90
12901;DHT22;6518;50.930;5.344;2022-12-29T03:58:25;11.80;99.90
12901;DHT22;6518;50.930;5.344;2022-12-29T04:00:52;11.80;99.90
12901;DHT22;6518;50.930;5.344;2022-12-29T04:03:18;11.80;99.90
12901;DHT22;6518;50.930;5.344;2022-12-29T04:05:45;11.80;99.90
12901;DHT22;6518;50.930;5.344;2022-12-29T04:08:13;11.70;99.90
12901;DHT22;6518;50.930;5.344;2022-12-29T04:10:40;11.70;99.90
12901;DHT22;6518;50.930;5.344;2022-12-29T04:13:07;11.70;99.90
12901;DHT22;6518;50.930;5.344;2022-12-29T04:15:33;11.70;99.90
12901;DHT22;6518;50.930;5.344;2022-12-29T04:18:00;11.70;99.90
12901;DHT22;6518;50.930;5.344;2022-12-29T04:20:27;11.70;99.90
12901;DHT22;6518;50.930;5.344;2022-12-29T04:23:13;11.70;99.90
12901;DHT22;6518;50.930;5.344;2022-12-29T04:25:40;11.60;99.90
12901;DHT22;6518;50.930;5.344;2022-12-29T04:28:06;11.60;99.90
12901;DHT22;6518;50.930;5.344;2022-12-29T04:30:33;11.50;99.90
12901;DHT22;6518;50.930;5.344;2022-12-29T04:33:00;11.40;99.90
12901;DHT22;6518;50.930;5.344;2022-12-29T04:35:27;11.40;99.90
12901;DHT22;6518;50.930;5.344;2022-12-29T04:37:54;11.40;99.90
12901;DHT22;6518;50.930;5.344;2022-12-29T04:40:22;11.40;99.90
12901;DHT22;6518;50.930;5.344;2022-12-29T04:42:50;11.30;99.90
12901;DHT22;6518;50.930;5.344;2022-12-29T04:45:17;11.30;99.90
12901;DHT22;6518;50.930;5.344;2022-12-29T04:47:44;11.30;99.90
12901;DHT22;6518;50.930;5.344;2022-12-29T04:50:11;11.30;99.90
12901;DHT22;6518;50.930;5.344;2022-12-29T04:52:38;11.20;99.90
12901;DHT22;6518;50.930;5.344;2022-12-29T04:55:06;11.20;99.90
12901;DHT22;6518;50.930;5.344;2022-12-29T04:57:35;11.20;99.90
12901;DHT22;6518;50.930;5.344;2022-12-29T05:00:02;11.10;99.90
12901;DHT22;6518;50.930;5.344;2022-12-29T05:02:29;11.10;99.90
12901;DHT22;6518;50.930;5.344;2022-12-29T05:04:56;11.10;99.90
12901;DHT22;6518;50.930;5.344;2022-12-29T05:07:23;11.10;99.90
12901;DHT22;6518;50.930;5.344;2022-12-29T05:09:50;11.10;99.90
12901;DHT22;6518;50.930;5.344;2022-12-29T05:12:17;11.10;99.90
12901;DHT22;6518;50.930;5.344;2022-12-29T05:14:45;11.10;99.90
12901;DHT22;6518;50.930;5.344;2022-12-29T05:17:12;11.10;99.90
12901;DHT22;6518;50.930;5.344;2022-12-29T05:19:39;11.10;99.90
12901;DHT22;6518;50.930;5.344;2022-12-29T05:22:06;11.10;99.90
12901;DHT22;6518;50.930;5.344;2022-12-29T05:24:32;11.10;99.90
12901;DHT22;6518;50.930;5.344;2022-12-29T05:26:59;11.20;99.90
12901;DHT22;6518;50.930;5.344;2022-12-29T05:29:26;11.20;99.90
12901;DHT22;6518;50.930;5.344;2022-12-29T05:31:54;11.20;99.90
12901;DHT22;6518;50.930;5.344;2022-12-29T05:34:21;11.20;99.90
12901;DHT22;6518;50.930;5.344;2022-12-29T05:36:47;11.30;99.90
12901;DHT22;6518;50.930;5.344;2022-12-29T05:39:14;11.30;99.90
12901;DHT22;6518;50.930;5.344;2022-12-29T05:41:41;11.30;99.90
12901;DHT22;6518;50.930;5.344;2022-12-29T05:44:09;11.30;99.90
12901;DHT22;6518;50.930;5.344;2022-12-29T05:46:36;11.30;99.90
12901;DHT22;6518;50.930;5.344;2022-12-29T05:49:05;11.30;99.90
12901;DHT22;6518;50.930;5.344;2022-12-29T05:51:32;11.40;99.90
12901;DHT22;6518;50.930;5.344;2022-12-29T05:53:59;11.30;99.90
12901;DHT22;6518;50.930;5.344;2022-12-29T05:56:25;11.40;99.90
12901;DHT22;6518;50.930;5.344;2022-12-29T05:58:52;11.30;99.90
12901;DHT22;6518;50.930;5.344;2022-12-29T06:01:19;11.40;99.90
12901;DHT22;6518;50.930;5.344;2022-12-29T06:03:46;11.40;99.90
12901;DHT22;6518;50.930;5.344;2022-12-29T06:06:14;11.40;99.90
12901;DHT22;6518;50.930;5.344;2022-12-29T06:08:41;11.40;99.90
12901;DHT22;6518;50.930;5.344;2022-12-29T06:11:08;11.40;99.90
12901;DHT22;6518;50.930;5.344;2022-12-29T06:13:35;11.40;99.90
12901;DHT22;6518;50.930;5.344;2022-12-29T06:16:01;11.30;98.80
12901;DHT22;6518;50.930;5.344;2022-12-29T06:18:28;11.30;97.00
12901;DHT22;6518;50.930;5.344;2022-12-29T06:20:59;11.30;97.30
12901;DHT22;6518;50.930;5.344;2022-12-29T06:23:27;11.30;97.60
12901;DHT22;6518;50.930;5.344;2022-12-29T06:25:54;11.30;96.70
12901;DHT22;6518;50.930;5.344;2022-12-29T06:28:21;11.20;97.00
12901;DHT22;6518;50.930;5.344;2022-12-29T06:30:48;11.20;97.00
12901;DHT22;6518;50.930;5.344;2022-12-29T06:33:16;11.20;96.30
12901;DHT22;6518;50.930;5.344;2022-12-29T06:35:43;11.20;96.40
12901;DHT22;6518;50.930;5.344;2022-12-29T06:38:11;11.20;96.10
12901;DHT22;6518;50.930;5.344;2022-12-29T06:40:39;11.20;96.20
12901;DHT22;6518;50.930;5.344;2022-12-29T06:43:06;11.20;95.60
12901;DHT22;6518;50.930;5.344;2022-12-29T06:45:33;11.20;95.70
12901;DHT22;6518;50.930;5.344;2022-12-29T06:48:00;11.10;95.90
12901;DHT22;6518;50.930;5.344;2022-12-29T06:50:27;11.10;96.10
12901;DHT22;6518;50.930;5.344;2022-12-29T06:52:53;11.10;95.40
12901;DHT22;6518;50.930;5.344;2022-12-29T06:55:20;11.10;95.20
12901;DHT22;6518;50.930;5.344;2022-12-29T06:57:49;11.10;95.30
12901;DHT22;6518;50.930;5.344;2022-12-29T07:00:16;11.10;95.10
12901;DHT22;6518;50.930;5.344;2022-12-29T07:02:43;11.10;95.00
12901;DHT22;6518;50.930;5.344;2022-12-29T07:05:10;11.10;94.40
12901;DHT22;6518;50.930;5.344;2022-12-29T07:07:36;11.20;94.60
12901;DHT22;6518;50.930;5.344;2022-12-29T07:10:04;11.10;94.50
12901;DHT22;6518;50.930;5.344;2022-12-29T07:12:31;11.20;94.30
12901;DHT22;6518;50.930;5.344;2022-12-29T07:14:59;11.20;94.00
12901;DHT22;6518;50.930;5.344;2022-12-29T07:17:26;11.20;93.50
12901;DHT22;6518;50.930;5.344;2022-12-29T07:19:53;11.20;93.70
12901;DHT22;6518;50.930;5.344;2022-12-29T07:22:20;11.20;93.40
12901;DHT22;6518;50.930;5.344;2022-12-29T07:24:47;11.20;93.50
12901;DHT22;6518;50.930;5.344;2022-12-29T07:27:14;11.20;93.60
12901;DHT22;6518;50.930;5.344;2022-12-29T07:29:40;11.20;93.70
12901;DHT22;6518;50.930;5.344;2022-12-29T07:32:08;11.20;93.90
12901;DHT22;6518;50.930;5.344;2022-12-29T07:34:35;11.20;94.80
12901;DHT22;6518;50.930;5.344;2022-12-29T07:37:02;11.20;95.40
12901;DHT22;6518;50.930;5.344;2022-12-29T07:39:29;11.10;96.00
12901;DHT22;6518;50.930;5.344;2022-12-29T07:41:56;11.10;96.50
12901;DHT22;6518;50.930;5.344;2022-12-29T07:44:22;11.00;96.70
12901;DHT22;6518;50.930;5.344;2022-12-29T07:46:49;11.00;97.10
12901;DHT22;6518;50.930;5.344;2022-12-29T07:49:17;11.00;97.50
12901;DHT22;6518;50.930;5.344;2022-12-29T07:51:44;11.00;98.00
12901;DHT22;6518;50.930;5.344;2022-12-29T07:54:11;10.90;98.40
12901;DHT22;6518;50.930;5.344;2022-12-29T07:56:38;10.90;98.50
12901;DHT22;6518;50.930;5.344;2022-12-29T07:59:06;10.90;98.80
12901;DHT22;6518;50.930;5.344;2022-12-29T08:01:32;11.00;98.70
12901;DHT22;6518;50.930;5.344;2022-12-29T08:03:59;11.00;98.10
12901;DHT22;6518;50.930;5.344;2022-12-29T08:06:27;11.00;97.30
12901;DHT22;6518;50.930;5.344;2022-12-29T08:09:00;11.00;96.10
12901;DHT22;6518;50.930;5.344;2022-12-29T08:11:27;11.00;96.30
12901;DHT22;6518;50.930;5.344;2022-12-29T08:13:54;11.00;96.20
12901;DHT22;6518;50.930;5.344;2022-12-29T08:16:20;11.00;95.30
12901;DHT22;6518;50.930;5.344;2022-12-29T08:18:47;11.00;95.60
12901;DHT22;6518;50.930;5.344;2022-12-29T08:21:14;11.00;94.90
12901;DHT22;6518;50.930;5.344;2022-12-29T08:23:42;11.00;95.00
12901;DHT22;6518;50.930;5.344;2022-12-29T08:26:09;11.10;94.40
12901;DHT22;6518;50.930;5.344;2022-12-29T08:28:36;11.00;93.80
12901;DHT22;6518;50.930;5.344;2022-12-29T08:31:03;11.10;94.00
12901;DHT22;6518;50.930;5.344;2022-12-29T08:33:30;11.10;93.30
12901;DHT22;6518;50.930;5.344;2022-12-29T08:35:59;11.20;92.20
12901;DHT22;6518;50.930;5.344;2022-12-29T08:38:27;11.20;92.60
12901;DHT22;6518;50.930;5.344;2022-12-29T08:40:56;11.20;91.80
12901;DHT22;6518;50.930;5.344;2022-12-29T08:43:23;11.20;91.20
12901;DHT22;6518;50.930;5.344;2022-12-29T08:45:50;11.20;91.40
12901;DHT22;6518;50.930;5.344;2022-12-29T08:48:17;11.30;91.10
12901;DHT22;6518;50.930;5.344;2022-12-29T08:50:48;11.20;90.40
12901;DHT22;6518;50.930;5.344;2022-12-29T08:53:15;11.30;90.00
12901;DHT22;6518;50.930;5.344;2022-12-29T08:55:44;11.20;89.60
12901;DHT22;6518;50.930;5.344;2022-12-29T08:58:13;11.20;88.20
12901;DHT22;6518;50.930;5.344;2022-12-29T09:00:42;11.30;88.30
12901;DHT22;6518;50.930;5.344;2022-12-29T09:03:09;11.30;88.40
12901;DHT22;6518;50.930;5.344;2022-12-29T09:05:35;11.20;88.40
12901;DHT22;6518;50.930;5.344;2022-12-29T09:08:02;11.20;88.40
12901;DHT22;6518;50.930;5.344;2022-12-29T09:10:29;11.30;87.90
12901;DHT22;6518;50.930;5.344;2022-12-29T09:12:56;11.30;88.00
12901;DHT22;6518;50.930;5.344;2022-12-29T09:15:24;11.30;87.70
12901;DHT22;6518;50.930;5.344;2022-12-29T09:17:51;11.30;87.80
12901;DHT22;6518;50.930;5.344;2022-12-29T09:20:19;11.30;87.40
12901;DHT22;6518;50.930;5.344;2022-12-29T09:22:46;11.30;87.70
12901;DHT22;6518;50.930;5.344;2022-12-29T09:25:14;11.30;87.70
12901;DHT22;6518;50.930;5.344;2022-12-29T09:27:41;11.30;87.70
12901;DHT22;6518;50.930;5.344;2022-12-29T09:30:11;11.30;86.90
12901;DHT22;6518;50.930;5.344;2022-12-29T09:32:41;11.30;86.70
12901;DHT22;6518;50.930;5.344;2022-12-29T09:35:08;11.30;86.20
12901;DHT22;6518;50.930;5.344;2022-12-29T09:37:35;11.40;86.00
12901;DHT22;6518;50.930;5.344;2022-12-29T09:40:02;11.40;85.50
12901;DHT22;6518;50.930;5.344;2022-12-29T09:42:35;11.40;85.70
12901;DHT22;6518;50.930;5.344;2022-12-29T09:45:11;11.40;85.20
12901;DHT22;6518;50.930;5.344;2022-12-29T09:47:42;11.50;84.70
12901;DHT22;6518;50.930;5.344;2022-12-29T09:50:16;11.40;84.20
12901;DHT22;6518;50.930;5.344;2022-12-29T09:52:48;11.40;84.00
12901;DHT22;6518;50.930;5.344;2022-12-29T09:55:20;11.50;83.10
12901;DHT22;6518;50.930;5.344;2022-12-29T09:57:49;11.50;82.50
12901;DHT22;6518;50.930;5.344;2022-12-29T10:00:20;11.50;82.60
12901;DHT22;6518;50.930;5.344;2022-12-29T10:02:52;11.50;82.20
12901;DHT22;6518;50.930;5.344;2022-12-29T10:05:28;11.50;82.20
12901;DHT22;6518;50.930;5.344;2022-12-29T10:08:07;11.50;81.60
12901;DHT22;6518;50.930;5.344;2022-12-29T10:10:43;11.50;81.20
12901;DHT22;6518;50.930;5.344;2022-12-29T10:13:27;11.50;80.80
12901;DHT22;6518;50.930;5.344;2022-12-29T10:16:01;11.60;80.30
12901;DHT22;6518;50.930;5.344;2022-12-29T10:18:57;11.50;80.00
12901;DHT22;6518;50.930;5.344;2022-12-29T10:21:37;11.50;79.70
12901;DHT22;6518;50.930;5.344;2022-12-29T10:24:08;11.50;80.30
12901;DHT22;6518;50.930;5.344;2022-12-29T10:26:39;11.50;79.30
12901;DHT22;6518;50.930;5.344;2022-12-29T10:29:13;11.50;79.60
12901;DHT22;6518;50.930;5.344;2022-12-29T10:31:44;11.50;79.30
12901;DHT22;6518;50.930;5.344;2022-12-29T10:34:19;11.50;79.50
12901;DHT22;6518;50.930;5.344;2022-12-29T10:36:49;11.60;79.00
12901;DHT22;6518;50.930;5.344;2022-12-29T10:39:22;11.60;78.80
12901;DHT22;6518;50.930;5.344;2022-12-29T10:41:53;11.70;77.90
12901;DHT22;6518;50.930;5.344;2022-12-29T10:44:30;11.70;78.20
12901;DHT22;6518;50.930;5.344;2022-12-29T10:47:00;11.70;78.40
12901;DHT22;6518;50.930;5.344;2022-12-29T10:49:32;11.70;78.40
12901;DHT22;6518;50.930;5.344;2022-12-29T10:52:02;11.80;78.50
12901;DHT22;6518;50.930;5.344;2022-12-29T10:54:33;11.80;78.70
12901;DHT22;6518;50.930;5.344;2022-12-29T10:57:05;11.80;77.90
12901;DHT22;6518;50.930;5.344;2022-12-29T10:59:36;11.80;78.10
12901;DHT22;6518;50.930;5.344;2022-12-29T11:02:19;11.90;78.00
12901;DHT22;6518;50.930;5.344;2022-12-29T11:04:57;12.00;77.50
12901;DHT22;6518;50.930;5.344;2022-12-29T11:07:27;12.00;77.60
12901;DHT22;6518;50.930;5.344;2022-12-29T11:09:55;12.00;77.50
12901;DHT22;6518;50.930;5.344;2022-12-29T11:12:55;12.10;76.70
12901;DHT22;6518;50.930;5.344;2022-12-29T11:15:22;12.00;76.90
12901;DHT22;6518;50.930;5.344;2022-12-29T11:17:50;12.00;76.90
12901;DHT22;6518;50.930;5.344;2022-12-29T11:20:43;12.00;77.20
12901;DHT22;6518;50.930;5.344;2022-12-29T11:23:26;11.90;77.10
12901;DHT22;6518;50.930;5.344;2022-12-29T11:26:16;11.90;77.30
12901;DHT22;6518;50.930;5.344;2022-12-29T11:28:45;11.90;77.20
12901;DHT22;6518;50.930;5.344;2022-12-29T11:31:17;11.90;77.30
12901;DHT22;6518;50.930;5.344;2022-12-29T11:33:45;11.90;77.20
12901;DHT22;6518;50.930;5.344;2022-12-29T11:36:17;12.00;77.00
12901;DHT22;6518;50.930;5.344;2022-12-29T11:38:48;11.90;76.80
12901;DHT22;6518;50.930;5.344;2022-12-29T11:41:21;11.90;76.90
12901;DHT22;6518;50.930;5.344;2022-12-29T11:43:49;11.80;77.10
12901;DHT22;6518;50.930;5.344;2022-12-29T11:46:19;11.80;77.40
12901;DHT22;6518;50.930;5.344;2022-12-29T11:48:47;11.80;77.20
12901;DHT22;6518;50.930;5.344;2022-12-29T11:51:22;11.80;77.20
12901;DHT22;6518;50.930;5.344;2022-12-29T11:53:51;11.80;77.00
12901;DHT22;6518;50.930;5.344;2022-12-29T11:56:21;11.80;77.00
12901;DHT22;6518;50.930;5.344;2022-12-29T11:58:50;11.90;76.90
12901;DHT22;6518;50.930;5.344;2022-12-29T12:01:22;11.90;77.10
12901;DHT22;6518;50.930;5.344;2022-12-29T12:03:58;11.90;76.80
12901;DHT22;6518;50.930;5.344;2022-12-29T12:06:31;12.00;76.60
12901;DHT22;6518;50.930;5.344;2022-12-29T12:09:02;12.00;76.50
12901;DHT22;6518;50.930;5.344;2022-12-29T12:11:34;12.00;76.60
12901;DHT22;6518;50.930;5.344;2022-12-29T12:14:10;12.10;75.90
12901;DHT22;6518;50.930;5.344;2022-12-29T12:16:41;12.10;75.90
12901;DHT22;6518;50.930;5.344;2022-12-29T12:19:15;12.10;75.60
12901;DHT22;6518;50.930;5.344;2022-12-29T12:21:52;12.20;75.60
12901;DHT22;6518;50.930;5.344;2022-12-29T12:24:31;12.10;75.60
12901;DHT22;6518;50.930;5.344;2022-12-29T12:27:11;12.20;75.50
12901;DHT22;6518;50.930;5.344;2022-12-29T12:29:43;12.20;75.60
12901;DHT22;6518;50.930;5.344;2022-12-29T12:32:16;12.20;76.30
12901;DHT22;6518;50.930;5.344;2022-12-29T12:34:45;12.20;75.50
12901;DHT22;6518;50.930;5.344;2022-12-29T12:37:39;12.20;75.00
12901;DHT22;6518;50.930;5.344;2022-12-29T12:40:34;12.10;75.20
12901;DHT22;6518;50.930;5.344;2022-12-29T12:43:27;12.10;74.60
12901;DHT22;6518;50.930;5.344;2022-12-29T12:49:03;12.10;75.20
12901;DHT22;6518;50.930;5.344;2022-12-29T12:51:42;12.10;75.10
12901;DHT22;6518;50.930;5.344;2022-12-29T12:54:26;12.10;75.40
12901;DHT22;6518;50.930;5.344;2022-12-29T12:57:08;12.10;75.30
12901;DHT22;6518;50.930;5.344;2022-12-29T12:59:49;12.10;75.30
12901;DHT22;6518;50.930;5.344;2022-12-29T13:02:33;12.00;75.30
12901;DHT22;6518;50.930;5.344;2022-12-29T13:05:19;12.00;75.20
12901;DHT22;6518;50.930;5.344;2022-12-29T13:07:54;12.00;75.40
12901;DHT22;6518;50.930;5.344;2022-12-29T13:10:32;11.90;75.20
12901;DHT22;6518;50.930;5.344;2022-12-29T13:13:30;11.90;75.40
12901;DHT22;6518;50.930;5.344;2022-12-29T13:16:04;11.90;75.50
12901;DHT22;6518;50.930;5.344;2022-12-29T13:18:37;12.00;75.50
12901;DHT22;6518;50.930;5.344;2022-12-29T13:21:18;12.00;75.40
12901;DHT22;6518;50.930;5.344;2022-12-29T13:23:56;12.00;75.50
12901;DHT22;6518;50.930;5.344;2022-12-29T13:26:29;12.00;75.50
12901;DHT22;6518;50.930;5.344;2022-12-29T13:29:04;12.00;75.60
12901;DHT22;6518;50.930;5.344;2022-12-29T13:31:39;12.10;75.40
12901;DHT22;6518;50.930;5.344;2022-12-29T13:34:18;12.10;75.40
12901;DHT22;6518;50.930;5.344;2022-12-29T13:36:52;12.00;75.20
12901;DHT22;6518;50.930;5.344;2022-12-29T13:39:24;12.00;75.50
12901;DHT22;6518;50.930;5.344;2022-12-29T13:41:56;12.00;75.50
12901;DHT22;6518;50.930;5.344;2022-12-29T13:44:27;12.00;75.80
12901;DHT22;6518;50.930;5.344;2022-12-29T13:46:56;12.00;75.80
12901;DHT22;6518;50.930;5.344;2022-12-29T13:49:26;11.90;75.50
12901;DHT22;6518;50.930;5.344;2022-12-29T13:51:55;11.90;75.70
12901;DHT22;6518;50.930;5.344;2022-12-29T13:54:31;11.90;75.90
12901;DHT22;6518;50.930;5.344;2022-12-29T13:57:15;11.80;75.80
12901;DHT22;6518;50.930;5.344;2022-12-29T13:59:52;11.80;76.10
12901;DHT22;6518;50.930;5.344;2022-12-29T14:02:27;11.80;76.20
12901;DHT22;6518;50.930;5.344;2022-12-29T14:05:00;11.80;76.00
12901;DHT22;6518;50.930;5.344;2022-12-29T14:07:28;11.80;76.00
12901;DHT22;6518;50.930;5.344;2022-12-29T14:09:56;11.80;76.10
12901;DHT22;6518;50.930;5.344;2022-12-29T14:12:37;11.70;76.20
12901;DHT22;6518;50.930;5.344;2022-12-29T14:15:14;11.70;76.80
12901;DHT22;6518;50.930;5.344;2022-12-29T14:17:42;11.70;77.70
12901;DHT22;6518;50.930;5.344;2022-12-29T14:20:18;11.60;77.80
12901;DHT22;6518;50.930;5.344;2022-12-29T14:22:56;11.60;78.60
12901;DHT22;6518;50.930;5.344;2022-12-29T14:25:58;11.50;78.80
12901;DHT22;6518;50.930;5.344;2022-12-29T14:28:28;11.50;79.10
12901;DHT22;6518;50.930;5.344;2022-12-29T14:30:56;11.40;80.00
12901;DHT22;6518;50.930;5.344;2022-12-29T14:33:24;11.40;81.10
12901;DHT22;6518;50.930;5.344;2022-12-29T14:35:53;11.30;81.80
12901;DHT22;6518;50.930;5.344;2022-12-29T14:38:30;11.20;82.00
12901;DHT22;6518;50.930;5.344;2022-12-29T14:41:17;11.20;83.00
12901;DHT22;6518;50.930;5.344;2022-12-29T14:43:54;11.10;83.60
12901;DHT22;6518;50.930;5.344;2022-12-29T14:46:23;11.10;84.50
12901;DHT22;6518;50.930;5.344;2022-12-29T14:48:55;11.00;85.00
12901;DHT22;6518;50.930;5.344;2022-12-29T14:51:31;11.00;84.70
12901;DHT22;6518;50.930;5.344;2022-12-29T14:53:58;11.00;85.10
12901;DHT22;6518;50.930;5.344;2022-12-29T14:56:27;10.90;85.20
12901;DHT22;6518;50.930;5.344;2022-12-29T14:59:01;11.00;85.40
12901;DHT22;6518;50.930;5.344;2022-12-29T15:01:39;10.90;85.60
12901;DHT22;6518;50.930;5.344;2022-12-29T15:04:15;10.90;85.80
12901;DHT22;6518;50.930;5.344;2022-12-29T15:06:43;10.90;85.80
12901;DHT22;6518;50.930;5.344;2022-12-29T15:09:19;10.90;85.50
12901;DHT22;6518;50.930;5.344;2022-12-29T15:11:51;10.90;85.00
12901;DHT22;6518;50.930;5.344;2022-12-29T15:14:31;10.90;84.70
12901;DHT22;6518;50.930;5.344;2022-12-29T15:16:59;10.90;84.70
12901;DHT22;6518;50.930;5.344;2022-12-29T15:19:27;10.90;84.40
12901;DHT22;6518;50.930;5.344;2022-12-29T15:21:54;10.90;84.40
12901;DHT22;6518;50.930;5.344;2022-12-29T15:24:22;10.90;84.00
12901;DHT22;6518;50.930;5.344;2022-12-29T15:26:51;10.80;83.60
12901;DHT22;6518;50.930;5.344;2022-12-29T15:29:36;10.80;83.50
12901;DHT22;6518;50.930;5.344;2022-12-29T15:32:17;10.80;83.20
12901;DHT22;6518;50.930;5.344;2022-12-29T15:34:46;10.80;82.70
12901;DHT22;6518;50.930;5.344;2022-12-29T15:37:19;10.80;82.70
12901;DHT22;6518;50.930;5.344;2022-12-29T15:39:46;10.80;83.20
12901;DHT22;6518;50.930;5.344;2022-12-29T15:42:27;10.80;83.50
12901;DHT22;6518;50.930;5.344;2022-12-29T15:44:57;10.70;84.20
12901;DHT22;6518;50.930;5.344;2022-12-29T15:47:27;10.80;83.70
12901;DHT22;6518;50.930;5.344;2022-12-29T15:49:59;10.60;83.40
12901;DHT22;6518;50.930;5.344;2022-12-29T15:52:29;10.50;83.60
12901;DHT22;6518;50.930;5.344;2022-12-29T15:54:58;10.50;83.70
12901;DHT22;6518;50.930;5.344;2022-12-29T15:57:27;10.50;83.70
12901;DHT22;6518;50.930;5.344;2022-12-29T15:59:56;10.50;83.70
12901;DHT22;6518;50.930;5.344;2022-12-29T16:02:23;10.50;84.00
12901;DHT22;6518;50.930;5.344;2022-12-29T16:04:51;10.50;84.20
12901;DHT22;6518;50.930;5.344;2022-12-29T16:07:26;10.50;84.50
12901;DHT22;6518;50.930;5.344;2022-12-29T16:09:57;10.50;84.70
12901;DHT22;6518;50.930;5.344;2022-12-29T16:12:28;10.50;85.00
12901;DHT22;6518;50.930;5.344;2022-12-29T16:15:00;10.50;85.10
12901;DHT22;6518;50.930;5.344;2022-12-29T16:17:29;10.50;85.20
12901;DHT22;6518;50.930;5.344;2022-12-29T16:19:59;10.50;85.30
12901;DHT22;6518;50.930;5.344;2022-12-29T16:22:28;10.50;85.40